sensor_id;sensor_type;location;lat;lon;timestamp;pressure;altitude;pressure_sealevel;temperature;humidity
75460;BME280;64039;53.060;9.342;2023-12-29T00:00:16;100081.00;;;9.49;100.00
75460;BME280;64039;53.060;9.342;2023-12-29T00:02:41;100094.03;;;9.51;100.00
75460;BME280;64039;53.060;9.342;2023-12-29T00:05:07;100080.16;;;9.50;100.00
75460;BME280;64039;53.060;9.342;2023-12-29T00:07:32;100081.03;;;9.51;100.00
75460;BME280;64039;53.060;9.342;2023-12-29T00:09:58;100072.34;;;9.49;100.00
75460;BME280;64039;53.060;9.342;2023-12-29T00:12:23;100072.34;;;9.50;100.00
75460;BME280;64039;53.060;9.342;2023-12-29T00:14:49;100069.72;;;9.47;100.00
75460;BME280;64039;53.060;9.342;2023-12-29T00:17:14;100058.44;;;9.47;100.00
75460;BME280;64039;53.060;9.342;2023-12-29T00:19:40;100059.34;;;9.47;100.00
75460;BME280;64039;53.060;9.342;2023-12-29T00:22:05;100050.66;;;9.47;100.00
75460;BME280;64039;53.060;9.342;2023-12-29T00:24:31;100056.69;;;9.46;100.00
75460;BME280;64039;53.060;9.342;2023-12-29T00:26:57;100054.94;;;9.43;100.00
75460;BME280;64039;53.060;9.342;2023-12-29T00:29:23;100061.03;;;9.45;100.00
75460;BME280;64039;53.060;9.342;2023-12-29T00:31:48;100052.41;;;9.48;100.00
75460;BME280;64039;53.060;9.342;2023-12-29T00:34:14;100060.13;;;9.43;100.00
75460;BME280;64039;53.060;9.342;2023-12-29T00:36:39;100048.75;;;9.33;100.00
75460;BME280;64039;53.060;9.342;2023-12-29T00:39:05;100054.84;;;9.35;100.00
75460;BME280;64039;53.060;9.342;2023-12-29T00:41:31;100059.16;;;9.35;100.00
75460;BME280;64039;53.060;9.342;2023-12-29T00:43:57;100054.94;;;9.41;100.00
75460;BME280;64039;53.060;9.342;2023-12-29T00:46:22;100047.84;;;9.30;100.00
75460;BME280;64039;53.060;9.342;2023-12-29T00:48:48;100051.22;;;9.22;100.00
75460;BME280;64039;53.060;9.342;2023-12-29T00:51:13;100037.41;;;9.25;100.00
75460;BME280;64039;53.060;9.342;2023-12-29T00:53:39;100022.59;;;9.19;100.00
75460;BME280;64039;53.060;9.342;2023-12-29T00:56:10;100027.00;;;9.25;100.00
75460;BME280;64039;53.060;9.342;2023-12-29T00:58:36;100033.00;;;9.21;100.00
75460;BME280;64039;53.060;9.342;2023-12-29T01:01:01;100024.28;;;9.17;100.00
75460;BME280;64039;53.060;9.342;2023-12-29T01:03:27;100036.28;;;9.07;100.00
75460;BME280;64039;53.060;9.342;2023-12-29T01:05:52;100030.25;;;9.10;100.00
75460;BME280;64039;53.060;9.342;2023-12-29T01:08:18;100021.56;;;9.08;100.00
75460;BME280;64039;53.060;9.342;2023-12-29T01:10:43;100025.06;;;9.10;100.00
75460;BME280;64039;53.060;9.342;2023-12-29T01:13:08;100026.06;;;9.20;100.00
75460;BME280;64039;53.060;9.342;2023-12-29T01:15:34;100018.19;;;9.13;100.00
75460;BME280;64039;53.060;9.342;2023-12-29T01:17:59;100025.13;;;9.13;100.00
75460;BME280;64039;53.060;9.342;2023-12-29T01:20:25;100034.72;;;9.19;100.00
75460;BME280;64039;53.060;9.342;2023-12-29T01:22:50;100025.25;;;9.24;100.00
75460;BME280;64039;53.060;9.342;2023-12-29T01:25:16;100031.31;;;9.24;100.00
75460;BME280;64039;53.060;9.342;2023-12-29T01:27:41;100031.38;;;9.29;100.00
75460;BME280;64039;53.060;9.342;2023-12-29T01:30:07;100019.16;;;9.22;100.00
75460;BME280;64039;53.060;9.342;2023-12-29T01:32:33;100024.38;;;9.23;100.00
75460;BME280;64039;53.060;9.342;2023-12-29T01:34:58;100012.22;;;9.21;100.00
75460;BME280;64039;53.060;9.342;2023-12-29T01:37:23;99997.50;;;9.20;100.00
75460;BME280;64039;53.060;9.342;2023-12-29T01:39:49;100021.69;;;9.16;100.00
75460;BME280;64039;53.060;9.342;2023-12-29T01:42:15;100025.19;;;9.21;100.00
75460;BME280;64039;53.060;9.342;2023-12-29T01:44:40;100037.31;;;9.19;100.00
75460;BME280;64039;53.060;9.342;2023-12-29T01:47:12;100045.03;;;9.14;100.00
75460;BME280;64039;53.060;9.342;2023-12-29T01:49:38;100035.44;;;9.11;100.00
75460;BME280;64039;53.060;9.342;2023-12-29T01:52:04;100040.56;;;9.07;100.00
75460;BME280;64039;53.060;9.342;2023-12-29T01:54:35;100033.63;;;9.04;100.00
75460;BME280;64039;53.060;9.342;2023-12-29T01:57:03;100040.56;;;9.05;100.00
75460;BME280;64039;53.060;9.342;2023-12-29T01:59:29;100024.91;;;8.98;100.00
75460;BME280;64039;53.060;9.342;2023-12-29T02:01:56;100018.78;;;8.95;100.00
75460;BME280;64039;53.060;9.342;2023-12-29T02:04:24;100029.13;;;8.92;100.00
75460;BME280;64039;53.060;9.342;2023-12-29T02:06:50;100016.91;;;8.87;100.00
75460;BME280;64039;53.060;9.342;2023-12-29T02:09:17;100037.69;;;8.87;100.00
75460;BME280;64039;53.060;9.342;2023-12-29T02:11:44;100012.56;;;8.83;100.00
75460;BME280;64039;53.060;9.342;2023-12-29T02:14:10;100011.44;;;8.67;100.00
75460;BME280;64039;53.060;9.342;2023-12-29T02:19:38;99990.44;;;8.51;100.00
75460;BME280;64039;53.060;9.342;2023-12-29T02:22:05;99991.25;;;8.48;100.00
75460;BME280;64039;53.060;9.342;2023-12-29T02:24:31;99996.47;;;8.50;100.00
75460;BME280;64039;53.060;9.342;2023-12-29T02:29:29;99979.84;;;8.39;100.00
75460;BME280;64039;53.060;9.342;2023-12-29T02:31:59;99967.75;;;8.41;100.00
75460;BME280;64039;53.060;9.342;2023-12-29T02:34:27;99966.97;;;8.46;100.00
75460;BME280;64039;53.060;9.342;2023-12-29T02:36:55;99958.34;;;8.46;100.00
75460;BME280;64039;53.060;9.342;2023-12-29T02:39:21;99953.16;;;8.46;100.00
75460;BME280;64039;53.060;9.342;2023-12-29T02:41:47;99933.25;;;8.45;100.00
75460;BME280;64039;53.060;9.342;2023-12-29T02:44:13;99945.38;;;8.46;100.00
75460;BME280;64039;53.060;9.342;2023-12-29T02:46:38;99962.59;;;8.42;100.00
75460;BME280;64039;53.060;9.342;2023-12-29T02:49:03;99940.06;;;8.40;100.00
75460;BME280;64039;53.060;9.342;2023-12-29T02:51:29;99925.41;;;8.42;100.00
75460;BME280;64039;53.060;9.342;2023-12-29T02:53:54;99927.00;;;8.33;100.00
75460;BME280;64039;53.060;9.342;2023-12-29T02:56:20;99930.38;;;8.28;100.00
75460;BME280;64039;53.060;9.342;2023-12-29T02:58:47;99946.94;;;8.36;100.00
75460;BME280;64039;53.060;9.342;2023-12-29T03:01:13;99947.66;;;8.27;100.00
75460;BME280;64039;53.060;9.342;2023-12-29T03:03:39;99937.22;;;8.23;100.00
75460;BME280;64039;53.060;9.342;2023-12-29T03:06:06;99921.69;;;8.24;100.00
75460;BME280;64039;53.060;9.342;2023-12-29T03:08:31;99906.09;;;8.21;100.00
75460;BME280;64039;53.060;9.342;2023-12-29T03:10:58;99911.19;;;8.16;100.00
75460;BME280;64039;53.060;9.342;2023-12-29T03:13:23;99921.72;;;8.26;100.00
75460;BME280;64039;53.060;9.342;2023-12-29T03:15:48;99916.47;;;8.21;100.00
75460;BME280;64039;53.060;9.342;2023-12-29T03:18:14;99903.59;;;8.29;100.00
75460;BME280;64039;53.060;9.342;2023-12-29T03:20:39;99895.97;;;8.38;100.00
75460;BME280;64039;53.060;9.342;2023-12-29T03:23:05;99892.41;;;8.31;100.00
75460;BME280;64039;53.060;9.342;2023-12-29T03:25:30;99886.44;;;8.37;100.00
75460;BME280;64039;53.060;9.342;2023-12-29T03:27:56;99886.28;;;8.28;100.00
75460;BME280;64039;53.060;9.342;2023-12-29T03:30:21;99876.91;;;8.36;100.00
75460;BME280;64039;53.060;9.342;2023-12-29T03:32:46;99888.16;;;8.35;100.00
75460;BME280;64039;53.060;9.342;2023-12-29T03:35:12;99879.25;;;8.17;100.00
75460;BME280;64039;53.060;9.342;2023-12-29T03:37:38;99880.03;;;8.12;100.00
75460;BME280;64039;53.060;9.342;2023-12-29T03:40:04;99863.50;;;8.05;100.00
75460;BME280;64039;53.060;9.342;2023-12-29T03:42:29;99867.75;;;8.01;100.00
75460;BME280;64039;53.060;9.342;2023-12-29T03:44:55;99863.41;;;7.99;100.00
75460;BME280;64039;53.060;9.342;2023-12-29T03:47:20;99885.88;;;8.00;100.00
75460;BME280;64039;53.060;9.342;2023-12-29T03:49:46;99874.69;;;8.04;100.00
75460;BME280;64039;53.060;9.342;2023-12-29T03:52:11;99895.41;;;8.02;100.00
75460;BME280;64039;53.060;9.342;2023-12-29T03:54:37;99875.59;;;8.05;100.00
75460;BME280;64039;53.060;9.342;2023-12-29T03:57:02;99867.81;;;8.06;100.00
75460;BME280;64039;53.060;9.342;2023-12-29T03:59:27;99871.34;;;8.10;100.00
75460;BME280;64039;53.060;9.342;2023-12-29T04:01:53;99866.22;;;8.13;100.00
75460;BME280;64039;53.060;9.342;2023-12-29T04:04:18;99865.38;;;8.15;100.00
75460;BME280;64039;53.060;9.342;2023-12-29T04:06:44;99866.25;;;8.16;100.00
75460;BME280;64039;53.060;9.342;2023-12-29T04:09:09;99871.50;;;8.21;100.00
75460;BME280;64039;53.060;9.342;2023-12-29T04:11:35;99874.22;;;8.27;100.00
75460;BME280;64039;53.060;9.342;2023-12-29T04:14:00;99895.13;;;8.39;100.00
75460;BME280;64039;53.060;9.342;2023-12-29T04:16:26;99902.13;;;8.43;100.00
75460;BME280;64039;53.060;9.342;2023-12-29T04:18:51;99910.03;;;8.53;100.00
75460;BME280;64039;53.060;9.342;2023-12-29T04:21:16;99904.06;;;8.58;100.00
75460;BME280;64039;53.060;9.342;2023-12-29T04:23:42;99927.22;;;8.46;100.00
75460;BME280;64039;53.060;9.342;2023-12-29T04:26:08;99908.53;;;7.63;100.00
75460;BME280;64039;53.060;9.342;2023-12-29T04:28:33;99928.34;;;7.16;100.00
75460;BME280;64039;53.060;9.342;2023-12-29T04:30:58;99913.47;;;6.66;100.00
75460;BME280;64039;53.060;9.342;2023-12-29T04:33:24;99952.03;;;6.57;100.00
75460;BME280;64039;53.060;9.342;2023-12-29T04:35:49;99950.50;;;6.27;100.00
75460;BME280;64039;53.060;9.342;2023-12-29T04:38:15;99952.69;;;6.11;100.00
75460;BME280;64039;53.060;9.342;2023-12-29T04:40:43;99916.13;;;5.97;100.00
75460;BME280;64039;53.060;9.342;2023-12-29T04:43:08;99918.94;;;6.05;100.00
75460;BME280;64039;53.060;9.342;2023-12-29T04:45:34;99903.78;;;6.19;100.00
75460;BME280;64039;53.060;9.342;2023-12-29T04:47:59;99905.25;;;6.44;100.00
75460;BME280;64039;53.060;9.342;2023-12-29T04:50:25;99898.59;;;6.56;100.00
75460;BME280;64039;53.060;9.342;2023-12-29T04:52:50;99912.50;;;6.61;100.00
75460;BME280;64039;53.060;9.342;2023-12-29T04:55:16;99917.19;;;6.78;100.00
75460;BME280;64039;53.060;9.342;2023-12-29T04:57:41;99897.25;;;6.73;100.00
75460;BME280;64039;53.060;9.342;2023-12-29T05:00:07;99918.88;;;6.77;100.00
75460;BME280;64039;53.060;9.342;2023-12-29T05:02:33;99912.59;;;7.05;100.00
75460;BME280;64039;53.060;9.342;2023-12-29T05:04:59;99903.88;;;7.45;100.00
75460;BME280;64039;53.060;9.342;2023-12-29T05:07:24;99902.88;;;7.85;100.00
75460;BME280;64039;53.060;9.342;2023-12-29T05:09:50;99906.63;;;8.03;100.00
75460;BME280;64039;53.060;9.342;2023-12-29T05:12:15;99902.59;;;8.19;100.00
75460;BME280;64039;53.060;9.342;2023-12-29T05:14:41;99897.56;;;8.30;100.00
75460;BME280;64039;53.060;9.342;2023-12-29T05:17:06;99914.09;;;8.35;100.00
75460;BME280;64039;53.060;9.342;2023-12-29T05:19:33;99911.53;;;8.40;100.00
75460;BME280;64039;53.060;9.342;2023-12-29T05:21:59;99909.13;;;8.47;100.00
75460;BME280;64039;53.060;9.342;2023-12-29T05:24:24;99905.66;;;8.47;100.00
75460;BME280;64039;53.060;9.342;2023-12-29T05:26:50;99906.59;;;8.54;100.00
75460;BME280;64039;53.060;9.342;2023-12-29T05:29:15;99903.16;;;8.53;100.00
75460;BME280;64039;53.060;9.342;2023-12-29T05:31:40;99908.31;;;8.52;100.00
75460;BME280;64039;53.060;9.342;2023-12-29T05:34:06;99904.91;;;8.56;100.00
75460;BME280;64039;53.060;9.342;2023-12-29T05:36:35;99901.28;;;8.46;100.00
75460;BME280;64039;53.060;9.342;2023-12-29T05:39:00;99910.63;;;8.34;100.00
75460;BME280;64039;53.060;9.342;2023-12-29T05:41:26;99894.91;;;8.24;100.00
75460;BME280;64039;53.060;9.342;2023-12-29T05:43:51;99894.06;;;8.26;100.00
75460;BME280;64039;53.060;9.342;2023-12-29T05:46:17;99892.31;;;8.24;100.00
75460;BME280;64039;53.060;9.342;2023-12-29T05:48:42;99895.81;;;8.29;100.00
75460;BME280;64039;53.060;9.342;2023-12-29T05:51:12;99901.84;;;8.26;100.00
75460;BME280;64039;53.060;9.342;2023-12-29T05:53:41;99885.44;;;8.27;100.00
75460;BME280;64039;53.060;9.342;2023-12-29T05:56:07;99900.06;;;8.22;100.00
75460;BME280;64039;53.060;9.342;2023-12-29T05:58:32;99906.13;;;8.24;100.00
75460;BME280;64039;53.060;9.342;2023-12-29T06:00:58;99908.84;;;8.30;100.00
75460;BME280;64039;53.060;9.342;2023-12-29T06:03:27;99922.66;;;8.31;100.00
75460;BME280;64039;53.060;9.342;2023-12-29T06:05:53;99933.94;;;8.33;100.00
75460;BME280;64039;53.060;9.342;2023-12-29T06:08:19;99927.06;;;8.35;100.00
75460;BME280;64039;53.060;9.342;2023-12-29T06:10:44;99942.72;;;8.41;100.00
75460;BME280;64039;53.060;9.342;2023-12-29T06:13:10;99940.25;;;8.49;100.00
75460;BME280;64039;53.060;9.342;2023-12-29T06:15:35;99946.34;;;8.53;100.00
75460;BME280;64039;53.060;9.342;2023-12-29T06:18:01;99936.94;;;8.59;100.00
75460;BME280;64039;53.060;9.342;2023-12-29T06:20:27;99945.72;;;8.66;100.00
75460;BME280;64039;53.060;9.342;2023-12-29T06:22:53;99936.09;;;8.59;100.00
75460;BME280;64039;53.060;9.342;2023-12-29T06:25:18;99955.16;;;8.62;100.00
75460;BME280;64039;53.060;9.342;2023-12-29T06:27:44;99961.25;;;8.64;100.00
75460;BME280;64039;53.060;9.342;2023-12-29T06:30:10;99946.47;;;8.59;100.00
75460;BME280;64039;53.060;9.342;2023-12-29T06:32:39;99956.84;;;8.59;100.00
75460;BME280;64039;53.060;9.342;2023-12-29T06:35:05;99951.66;;;8.59;100.00
75460;BME280;64039;53.060;9.342;2023-12-29T06:37:31;99949.94;;;8.61;100.00
75460;BME280;64039;53.060;9.342;2023-12-29T06:39:57;99949.91;;;8.58;100.00
75460;BME280;64039;53.060;9.342;2023-12-29T06:42:22;99951.53;;;8.53;100.00
75460;BME280;64039;53.060;9.342;2023-12-29T06:44:48;99952.38;;;8.50;100.00
75460;BME280;64039;53.060;9.342;2023-12-29T06:47:14;99953.28;;;8.54;100.00
75460;BME280;64039;53.060;9.342;2023-12-29T06:49:39;99965.31;;;8.48;100.00
75460;BME280;64039;53.060;9.342;2023-12-29T06:52:05;99960.22;;;8.55;100.00
75460;BME280;64039;53.060;9.342;2023-12-29T06:54:30;99940.41;;;8.58;100.00
75460;BME280;64039;53.060;9.342;2023-12-29T06:56:56;99940.38;;;8.55;100.00
75460;BME280;64039;53.060;9.342;2023-12-29T06:59:22;99942.06;;;8.55;100.00
75460;BME280;64039;53.060;9.342;2023-12-29T07:01:48;99939.47;;;8.55;100.00
75460;BME280;64039;53.060;9.342;2023-12-29T07:04:14;99941.16;;;8.51;100.00
75460;BME280;64039;53.060;9.342;2023-12-29T07:06:41;99942.06;;;8.53;100.00
75460;BME280;64039;53.060;9.342;2023-12-29T07:09:07;99943.81;;;8.56;100.00
75460;BME280;64039;53.060;9.342;2023-12-29T07:11:34;99948.16;;;8.57;100.00
75460;BME280;64039;53.060;9.342;2023-12-29T07:13:59;99953.34;;;8.57;100.00
75460;BME280;64039;53.060;9.342;2023-12-29T07:16:25;99948.03;;;8.49;100.00
75460;BME280;64039;53.060;9.342;2023-12-29T07:18:50;99947.16;;;8.48;100.00
75460;BME280;64039;53.060;9.342;2023-12-29T07:21:17;99952.34;;;8.48;100.00
75460;BME280;64039;53.060;9.342;2023-12-29T07:23:43;99948.81;;;8.46;100.00
75460;BME280;64039;53.060;9.342;2023-12-29T07:26:08;99951.47;;;8.48;100.00
75460;BME280;64039;53.060;9.342;2023-12-29T07:28:34;99958.28;;;8.43;100.00
75460;BME280;64039;53.060;9.342;2023-12-29T07:31:00;99960.03;;;8.44;100.00
75460;BME280;64039;53.060;9.342;2023-12-29T07:33:26;99966.06;;;8.44;100.00
75460;BME280;64039;53.060;9.342;2023-12-29T07:35:51;99965.06;;;8.34;100.00
75460;BME280;64039;53.060;9.342;2023-12-29T07:38:17;99959.03;;;8.36;100.00
75460;BME280;64039;53.060;9.342;2023-12-29T07:40:43;99959.09;;;8.39;100.00
75460;BME280;64039;53.060;9.342;2023-12-29T07:43:08;99958.13;;;8.33;100.00
75460;BME280;64039;53.060;9.342;2023-12-29T07:45:34;99961.63;;;8.37;100.00
75460;BME280;64039;53.060;9.342;2023-12-29T07:47:59;99971.09;;;8.33;100.00
75460;BME280;64039;53.060;9.342;2023-12-29T07:50:24;99974.50;;;8.31;100.00
75460;BME280;64039;53.060;9.342;2023-12-29T07:52:50;99972.78;;;8.31;100.00
75460;BME280;64039;53.060;9.342;2023-12-29T07:55:15;99970.31;;;8.39;100.00
75460;BME280;64039;53.060;9.342;2023-12-29T07:57:44;99979.78;;;8.37;100.00
75460;BME280;64039;53.060;9.342;2023-12-29T08:00:14;99972.84;;;8.36;100.00
75460;BME280;64039;53.060;9.342;2023-12-29T08:02:40;99978.13;;;8.41;100.00
75460;BME280;64039;53.060;9.342;2023-12-29T08:05:06;99972.16;;;8.45;100.00
75460;BME280;64039;53.060;9.342;2023-12-29T08:07:34;99972.91;;;8.39;100.00
75460;BME280;64039;53.060;9.342;2023-12-29T08:10:00;99976.44;;;8.43;100.00
75460;BME280;64039;53.060;9.342;2023-12-29T08:12:25;99979.94;;;8.46;100.00
75460;BME280;64039;53.060;9.342;2023-12-29T08:14:52;99978.16;;;8.42;100.00
75460;BME280;64039;53.060;9.342;2023-12-29T08:17:17;99974.59;;;8.37;100.00
75460;BME280;64039;53.060;9.342;2023-12-29T08:19:43;99975.56;;;8.42;100.00
75460;BME280;64039;53.060;9.342;2023-12-29T08:22:08;99965.13;;;8.39;100.00
75460;BME280;64039;53.060;9.342;2023-12-29T08:24:34;99960.88;;;8.43;100.00
75460;BME280;64039;53.060;9.342;2023-12-29T08:26:59;99967.81;;;8.44;100.00
75460;BME280;64039;53.060;9.342;2023-12-29T08:29:25;99981.63;;;8.44;100.00
75460;BME280;64039;53.060;9.342;2023-12-29T08:31:51;99972.16;;;8.45;100.00
75460;BME280;64039;53.060;9.342;2023-12-29T08:34:16;99977.25;;;8.40;100.00
75460;BME280;64039;53.060;9.342;2023-12-29T08:36:42;99977.16;;;8.34;100.00
75460;BME280;64039;53.060;9.342;2023-12-29T08:39:07;99975.50;;;8.38;100.00
75460;BME280;64039;53.060;9.342;2023-12-29T08:41:34;99966.81;;;8.37;100.00
75460;BME280;64039;53.060;9.342;2023-12-29T08:44:00;99977.19;;;8.37;100.00
75460;BME280;64039;53.060;9.342;2023-12-29T08:46:26;99965.22;;;8.44;100.00
75460;BME280;64039;53.060;9.342;2023-12-29T08:48:51;99971.16;;;8.38;100.00
75460;BME280;64039;53.060;9.342;2023-12-29T08:51:17;99946.31;;;8.49;100.00
75460;BME280;64039;53.060;9.342;2023-12-29T08:53:42;99960.88;;;8.44;100.00
75460;BME280;64039;53.060;9.342;2023-12-29T08:56:08;99960.88;;;8.44;100.00
75460;BME280;64039;53.060;9.342;2023-12-29T08:58:33;99958.19;;;8.37;100.00
75460;BME280;64039;53.060;9.342;2023-12-29T09:00:58;99945.97;;;8.29;100.00
75460;BME280;64039;53.060;9.342;2023-12-29T09:03:24;99968.38;;;8.26;100.00
75460;BME280;64039;53.060;9.342;2023-12-29T09:05:49;99982.88;;;8.14;100.00
75460;BME280;64039;53.060;9.342;2023-12-29T09:08:15;99974.19;;;8.12;100.00
75460;BME280;64039;53.060;9.342;2023-12-29T09:10:40;99955.94;;;8.06;100.00
75460;BME280;64039;53.060;9.342;2023-12-29T09:13:06;99949.75;;;7.96;100.00
75460;BME280;64039;53.060;9.342;2023-12-29T09:15:32;99959.97;;;7.90;100.00
75460;BME280;64039;53.060;9.342;2023-12-29T09:17:57;99971.19;;;7.89;100.00
75460;BME280;64039;53.060;9.342;2023-12-29T09:20:23;100004.66;;;7.78;100.00
75460;BME280;64039;53.060;9.342;2023-12-29T09:22:48;99995.34;;;7.02;100.00
75460;BME280;64039;53.060;9.342;2023-12-29T09:25:13;100028.94;;;5.66;100.00
75460;BME280;64039;53.060;9.342;2023-12-29T09:27:39;100030.78;;;4.56;100.00
75460;BME280;64039;53.060;9.342;2023-12-29T09:30:05;99979.25;;;4.05;100.00
75460;BME280;64039;53.060;9.342;2023-12-29T09:32:31;100011.44;;;4.18;100.00
75460;BME280;64039;53.060;9.342;2023-12-29T09:34:56;100009.59;;;4.39;100.00
75460;BME280;64039;53.060;9.342;2023-12-29T09:37:22;100033.09;;;4.49;100.00
75460;BME280;64039;53.060;9.342;2023-12-29T09:39:47;100062.16;;;4.70;100.00
75460;BME280;64039;53.060;9.342;2023-12-29T09:42:20;100043.81;;;4.88;100.00
75460;BME280;64039;53.060;9.342;2023-12-29T09:44:50;100044.50;;;5.10;100.00
75460;BME280;64039;53.060;9.342;2023-12-29T09:47:22;100039.06;;;5.30;100.00
75460;BME280;64039;53.060;9.342;2023-12-29T09:49:48;100029.09;;;5.42;100.00
75460;BME280;64039;53.060;9.342;2023-12-29T09:52:15;100042.59;;;5.62;100.00
75460;BME280;64039;53.060;9.342;2023-12-29T09:54:42;100058.44;;;5.75;100.00
75460;BME280;64039;53.060;9.342;2023-12-29T09:57:08;100047.59;;;5.87;100.00
75460;BME280;64039;53.060;9.342;2023-12-29T09:59:35;100032.22;;;5.91;100.00
75460;BME280;64039;53.060;9.342;2023-12-29T10:02:12;100020.53;;;6.04;100.00
75460;BME280;64039;53.060;9.342;2023-12-29T10:04:40;100017.41;;;6.16;100.00
75460;BME280;64039;53.060;9.342;2023-12-29T10:07:05;100002.22;;;6.30;100.00
75460;BME280;64039;53.060;9.342;2023-12-29T10:09:34;100016.34;;;6.43;100.00
75460;BME280;64039;53.060;9.342;2023-12-29T10:12:02;100006.28;;;6.54;100.00
75460;BME280;64039;53.060;9.342;2023-12-29T10:14:46;100013.38;;;6.63;100.00
75460;BME280;64039;53.060;9.342;2023-12-29T10:18:03;99997.00;;;6.62;100.00
75460;BME280;64039;53.060;9.342;2023-12-29T10:25:10;99996.00;;;6.93;100.00
75460;BME280;64039;53.060;9.342;2023-12-29T10:27:36;100001.31;;;7.00;100.00
75460;BME280;64039;53.060;9.342;2023-12-29T10:30:01;99993.78;;;7.09;100.00
75460;BME280;64039;53.060;9.342;2023-12-29T10:32:29;99987.78;;;7.12;100.00
75460;BME280;64039;53.060;9.342;2023-12-29T10:35:08;99993.16;;;7.21;100.00
75460;BME280;64039;53.060;9.342;2023-12-29T10:37:34;99977.47;;;7.15;100.00
75460;BME280;64039;53.060;9.342;2023-12-29T10:39:59;99992.88;;;7.08;100.00
75460;BME280;64039;53.060;9.342;2023-12-29T10:42:26;99996.50;;;7.17;100.00
75460;BME280;64039;53.060;9.342;2023-12-29T10:45:05;100021.41;;;7.12;100.00
75460;BME280;64039;53.060;9.342;2023-12-29T10:47:32;99999.94;;;7.16;100.00
75460;BME280;64039;53.060;9.342;2023-12-29T10:49:59;99991.25;;;7.14;100.00
75460;BME280;64039;53.060;9.342;2023-12-29T10:52:25;99996.28;;;7.06;100.00
75460;BME280;64039;53.060;9.342;2023-12-29T10:55:04;100010.53;;;6.88;100.00
75460;BME280;64039;53.060;9.342;2023-12-29T10:57:30;100006.13;;;6.84;100.00
75460;BME280;64039;53.060;9.342;2023-12-29T10:59:55;100000.00;;;6.81;100.00
75460;BME280;64039;53.060;9.342;2023-12-29T11:02:26;99998.84;;;6.68;100.00
75460;BME280;64039;53.060;9.342;2023-12-29T11:05:01;99965.97;;;6.62;100.00
75460;BME280;64039;53.060;9.342;2023-12-29T11:07:41;99981.53;;;6.65;100.00
75460;BME280;64039;53.060;9.342;2023-12-29T11:10:09;99984.25;;;6.70;100.00
75460;BME280;64039;53.060;9.342;2023-12-29T11:12:36;99969.63;;;6.70;100.00
75460;BME280;64039;53.060;9.342;2023-12-29T11:15:04;99976.31;;;6.62;100.00
75460;BME280;64039;53.060;9.342;2023-12-29T11:17:31;99953.94;;;6.64;100.00
75460;BME280;64039;53.060;9.342;2023-12-29T11:19:59;99963.50;;;6.67;100.00
75460;BME280;64039;53.060;9.342;2023-12-29T11:22:28;99968.56;;;6.62;100.00
75460;BME280;64039;53.060;9.342;2023-12-29T11:24:54;99982.81;;;6.46;100.00
75460;BME280;64039;53.060;9.342;2023-12-29T11:27:21;99972.25;;;6.37;100.00
75460;BME280;64039;53.060;9.342;2023-12-29T11:29:47;99988.72;;;6.40;100.00
75460;BME280;64039;53.060;9.342;2023-12-29T11:32:19;99979.16;;;6.36;100.00
75460;BME280;64039;53.060;9.342;2023-12-29T11:34:54;99974.84;;;6.37;100.00
75460;BME280;64039;53.060;9.342;2023-12-29T11:40:10;99961.00;;;6.35;100.00
75460;BME280;64039;53.060;9.342;2023-12-29T11:42:40;99939.84;;;6.51;100.00
75460;BME280;64039;53.060;9.342;2023-12-29T11:47:50;99940.28;;;6.70;100.00
75460;BME280;64039;53.060;9.342;2023-12-29T11:50:27;99951.66;;;6.76;100.00
75460;BME280;64039;53.060;9.342;2023-12-29T11:52:54;99936.16;;;6.78;100.00
75460;BME280;64039;53.060;9.342;2023-12-29T11:55:20;99919.06;;;6.85;100.00
75460;BME280;64039;53.060;9.342;2023-12-29T11:57:46;99918.16;;;6.84;100.00
75460;BME280;64039;53.060;9.342;2023-12-29T12:00:12;99930.53;;;6.96;100.00
75460;BME280;64039;53.060;9.342;2023-12-29T12:02:38;99930.78;;;7.08;100.00
75460;BME280;64039;53.060;9.342;2023-12-29T12:05:04;99942.84;;;7.08;100.00
75460;BME280;64039;53.060;9.342;2023-12-29T12:12:47;99970.72;;;7.21;100.00
75460;BME280;64039;53.060;9.342;2023-12-29T12:18:04;99950.84;;;7.20;100.00
75460;BME280;64039;53.060;9.342;2023-12-29T12:20:31;99939.44;;;7.11;100.00
75460;BME280;64039;53.060;9.342;2023-12-29T12:23:18;99921.13;;;7.01;100.00
75460;BME280;64039;53.060;9.342;2023-12-29T12:25:46;99933.06;;;6.95;100.00
75460;BME280;64039;53.060;9.342;2023-12-29T12:28:14;99924.34;;;6.89;100.00
75460;BME280;64039;53.060;9.342;2023-12-29T12:30:39;99921.06;;;6.98;100.00
75460;BME280;64039;53.060;9.342;2023-12-29T12:33:06;99945.16;;;6.96;100.00
75460;BME280;64039;53.060;9.342;2023-12-29T12:35:32;99947.38;;;6.79;100.00
75460;BME280;64039;53.060;9.342;2023-12-29T12:38:16;99940.38;;;6.74;100.00
75460;BME280;64039;53.060;9.342;2023-12-29T12:40:47;99929.06;;;6.69;100.00
75460;BME280;64039;53.060;9.342;2023-12-29T12:43:14;99936.97;;;6.77;100.00
75460;BME280;64039;53.060;9.342;2023-12-29T12:46:00;99950.50;;;6.65;100.00
75460;BME280;64039;53.060;9.342;2023-12-29T12:48:40;99934.88;;;6.60;100.00
75460;BME280;64039;53.060;9.342;2023-12-29T12:51:06;99936.66;;;6.61;100.00
75460;BME280;64039;53.060;9.342;2023-12-29T12:53:33;99926.13;;;6.54;100.00
75460;BME280;64039;53.060;9.342;2023-12-29T12:55:59;99920.16;;;6.56;100.00
75460;BME280;64039;53.060;9.342;2023-12-29T12:58:25;99922.63;;;6.50;100.00
75460;BME280;64039;53.060;9.342;2023-12-29T13:00:57;99926.16;;;6.55;100.00
75460;BME280;64039;53.060;9.342;2023-12-29T13:03:22;99923.59;;;6.55;100.00
75460;BME280;64039;53.060;9.342;2023-12-29T13:05:48;99935.81;;;6.63;100.00
75460;BME280;64039;53.060;9.342;2023-12-29T13:08:13;99932.53;;;6.70;100.00
75460;BME280;64039;53.060;9.342;2023-12-29T13:10:43;99928.34;;;6.75;100.00
75460;BME280;64039;53.060;9.342;2023-12-29T13:13:12;99924.13;;;6.80;100.00
75460;BME280;64039;53.060;9.342;2023-12-29T13:15:51;99931.19;;;6.87;100.00
75460;BME280;64039;53.060;9.342;2023-12-29T13:18:17;99927.75;;;6.87;100.00